createdAt,value
2023-04-18T00:01:00.149Z,13.48
2023-04-18T00:03:29.941Z,13.80
2023-04-18T00:05:58.098Z,13.35
2023-04-18T00:08:25.608Z,13.38
2023-04-18T00:10:54.059Z,13.05
2023-04-18T00:13:21.855Z,14.80
2023-04-18T00:15:49.676Z,12.68
2023-04-18T00:18:17.426Z,14.55
2023-04-18T00:20:46.461Z,11.82
2023-04-18T00:23:14.916Z,13.17
2023-04-18T00:25:42.622Z,11.68
2023-04-18T00:28:10.197Z,13.00
2023-04-18T00:30:37.959Z,11.27
2023-04-18T00:33:05.749Z,11.93
2023-04-18T00:35:33.399Z,11.60
2023-04-18T00:38:01.034Z,10.00
2023-04-18T00:40:28.730Z,10.45
2023-04-18T00:42:56.302Z,11.85
2023-04-18T00:45:23.879Z,12.38
2023-04-18T00:47:51.723Z,12.25
2023-04-18T00:50:19.984Z,11.52
2023-04-18T00:52:47.954Z,10.52
2023-04-18T00:55:16.172Z,11.00
2023-04-18T00:57:44.008Z,11.32
2023-04-18T01:00:12.367Z,11.40
2023-04-18T01:02:41.198Z,12.65
2023-04-18T01:05:09.124Z,10.38
2023-04-18T01:07:41.691Z,11.82
2023-04-18T01:10:10.827Z,10.80
2023-04-18T01:12:38.462Z,10.63
2023-04-18T01:15:06.765Z,10.02
2023-04-18T01:20:08.162Z,11.32
2023-04-18T01:22:36.059Z,10.40
2023-04-18T01:25:08.229Z,10.88
2023-04-18T01:27:35.903Z,10.93
2023-04-18T01:30:04.128Z,10.43
2023-04-18T01:32:33.197Z,10.57
2023-04-18T01:35:00.751Z,11.20
2023-04-18T01:37:28.392Z,11.45
2023-04-18T01:39:55.905Z,11.95
2023-04-18T01:42:23.429Z,11.55
2023-04-18T01:44:50.983Z,11.15
2023-04-18T01:47:18.676Z,12.23
2023-04-18T01:49:48.213Z,10.50
2023-04-18T01:52:16.181Z,10.45
2023-04-18T01:54:43.714Z,12.05
2023-04-18T01:57:11.213Z,12.00
2023-04-18T01:59:38.993Z,11.18
2023-04-18T02:02:06.645Z,11.48
2023-04-18T02:04:34.333Z,11.45
2023-04-18T02:07:02.400Z,11.68
2023-04-18T02:09:30.140Z,10.38
2023-04-18T02:11:59.531Z,12.07
2023-04-18T02:14:29.112Z,11.52
2023-04-18T02:17:00.258Z,11.13
2023-04-18T02:19:30.514Z,11.98
2023-04-18T02:21:58.141Z,13.45
2023-04-18T02:24:25.750Z,11.65
2023-04-18T02:26:53.338Z,12.80
2023-04-18T02:29:21.072Z,11.68
2023-04-18T02:31:48.715Z,12.77
2023-04-18T02:34:16.466Z,11.88
2023-04-18T02:36:43.960Z,13.20
2023-04-18T02:39:11.512Z,13.82
2023-04-18T02:41:39.764Z,13.10
2023-04-18T02:44:08.304Z,13.68
2023-04-18T02:46:38.873Z,15.43
2023-04-18T02:49:09.440Z,14.35
2023-04-18T02:51:37.001Z,13.95
2023-04-18T02:54:05.503Z,14.63
2023-04-18T02:56:47.447Z,14.60
2023-04-18T02:59:39.624Z,13.60
2023-04-18T03:02:07.237Z,14.00
2023-04-18T03:04:36.553Z,14.20
2023-04-18T03:07:07.152Z,14.05
2023-04-18T03:09:37.476Z,14.77
2023-04-18T03:12:14.711Z,13.75
2023-04-18T03:14:44.509Z,14.75
2023-04-18T03:17:13.998Z,13.90
2023-04-18T03:19:46.608Z,14.48
2023-04-18T03:22:16.429Z,13.20
2023-04-18T03:24:51.831Z,14.32
2023-04-18T03:27:20.652Z,14.63
2023-04-18T03:29:48.786Z,14.48
2023-04-18T03:32:17.371Z,13.80
2023-04-18T03:34:45.303Z,14.57
2023-04-18T03:37:12.806Z,15.18
2023-04-18T03:39:46.180Z,14.45
2023-04-18T03:42:14.294Z,14.05
2023-04-18T03:44:43.431Z,13.80
2023-04-18T03:47:11.383Z,14.00
2023-04-18T03:49:42.535Z,14.98
2023-04-18T03:52:10.206Z,14.02
2023-04-18T03:54:37.712Z,15.02
2023-04-18T03:57:05.678Z,14.77
2023-04-18T03:59:36.080Z,15.65
2023-04-18T04:02:03.856Z,14.30
2023-04-18T04:04:31.597Z,14.20
2023-04-18T04:07:00.437Z,13.95
2023-04-18T04:09:28.161Z,13.98
2023-04-18T04:11:55.857Z,14.68
2023-04-18T04:14:24.695Z,15.35
2023-04-18T04:16:53.899Z,14.52
2023-04-18T04:19:22.100Z,14.43
2023-04-18T04:21:57.635Z,16.05
2023-04-18T04:24:25.376Z,15.55
2023-04-18T04:26:53.532Z,15.00
2023-04-18T04:29:24.404Z,15.23
2023-04-18T04:31:53.372Z,16.97
2023-04-18T04:34:31.712Z,15.98
2023-04-18T04:37:01.422Z,15.82
2023-04-18T04:42:13.422Z,16.60
2023-04-18T04:44:53.602Z,15.23
2023-04-18T04:47:22.565Z,16.42
2023-04-18T04:49:50.246Z,17.27
2023-04-18T04:52:17.881Z,15.93
2023-04-18T04:54:46.652Z,16.33
2023-04-18T04:57:16.848Z,18.55
2023-04-18T04:59:45.694Z,16.83
2023-04-18T05:02:13.589Z,17.17
2023-04-18T05:04:41.968Z,15.68
2023-04-18T05:07:09.708Z,17.02
2023-04-18T05:09:39.697Z,17.25
2023-04-18T05:12:07.666Z,17.48
2023-04-18T05:14:36.276Z,20.58
2023-04-18T05:17:04.282Z,18.35
2023-04-18T05:19:31.812Z,17.75
2023-04-18T05:21:59.497Z,18.10
2023-04-18T05:24:27.010Z,18.30
2023-04-18T05:26:54.726Z,19.40
2023-04-18T05:29:22.242Z,21.35
2023-04-18T05:31:49.899Z,19.85
2023-04-18T05:34:20.729Z,21.00
2023-04-18T05:36:48.541Z,20.20
2023-04-18T05:39:16.993Z,19.20
2023-04-18T05:41:44.603Z,21.20
2023-04-18T05:44:12.065Z,19.02
2023-04-18T05:46:39.889Z,17.92
2023-04-18T05:49:07.518Z,19.65
2023-04-18T05:51:35.154Z,19.50
2023-04-18T05:54:02.762Z,17.85
2023-04-18T05:56:30.710Z,19.88
2023-04-18T05:59:00.751Z,17.60
2023-04-18T06:01:28.540Z,18.05
2023-04-18T06:03:56.778Z,18.05
2023-04-18T06:06:24.676Z,18.83
2023-04-18T06:08:52.301Z,17.33
2023-04-18T06:11:22.693Z,20.20
2023-04-18T06:13:50.443Z,16.95
2023-04-18T06:16:18.180Z,17.92
2023-04-18T06:18:45.730Z,16.67
2023-04-18T06:21:13.890Z,18.33
2023-04-18T06:23:41.515Z,18.10
2023-04-18T06:26:09.432Z,16.10
2023-04-18T06:28:36.895Z,15.18
2023-04-18T06:31:04.727Z,14.18
2023-04-18T06:33:33.949Z,14.52
2023-04-18T06:36:01.587Z,14.55
2023-04-18T06:38:29.137Z,15.90
2023-04-18T06:40:56.754Z,13.95
2023-04-18T06:43:24.291Z,13.73
2023-04-18T06:45:52.076Z,12.90
2023-04-18T06:48:19.609Z,13.68
2023-04-18T06:50:47.303Z,13.85
2023-04-18T06:53:15.039Z,13.20
2023-04-18T06:55:42.686Z,13.10
2023-04-18T06:58:10.401Z,12.40
2023-04-18T07:00:37.952Z,11.77
2023-04-18T07:03:13.475Z,11.23
2023-04-18T07:05:41.524Z,12.20
2023-04-18T07:08:09.039Z,11.90
2023-04-18T07:10:36.647Z,11.57
2023-04-18T07:13:04.681Z,11.77
2023-04-18T07:15:35.099Z,10.82
2023-04-18T07:18:02.728Z,11.98
2023-04-18T07:20:30.390Z,12.90
2023-04-18T07:22:57.977Z,12.55
2023-04-18T07:25:25.767Z,13.43
2023-04-18T07:27:53.276Z,13.05
2023-04-18T07:30:20.870Z,14.63
2023-04-18T07:32:48.794Z,14.40
2023-04-18T07:35:17.413Z,13.45
2023-04-18T07:37:44.982Z,11.60
2023-04-18T07:40:13.093Z,14.43
2023-04-18T07:42:40.830Z,14.77
2023-04-18T07:45:08.626Z,13.95
2023-04-18T07:47:36.324Z,13.88
2023-04-18T07:50:04.321Z,16.65
2023-04-18T07:52:31.954Z,13.48
2023-04-18T07:55:02.459Z,14.30
2023-04-18T07:57:31.282Z,13.75
2023-04-18T07:59:58.791Z,13.88
2023-04-18T08:02:26.460Z,14.20
2023-04-18T08:04:56.182Z,15.40
2023-04-18T08:07:24.060Z,15.20
2023-04-18T08:09:51.650Z,16.15
2023-04-18T08:12:19.655Z,15.38
2023-04-18T08:14:47.168Z,16.08
2023-04-18T08:17:14.893Z,14.80
2023-04-18T08:19:44.466Z,16.63
2023-04-18T08:22:12.113Z,15.82
2023-04-18T08:24:41.639Z,16.42
2023-04-18T08:27:10.988Z,16.40
2023-04-18T08:29:38.444Z,14.75
2023-04-18T08:32:08.817Z,15.00
2023-04-18T08:34:38.058Z,14.10
2023-04-18T08:37:07.302Z,13.98
2023-04-18T08:39:35.427Z,14.30
2023-04-18T08:42:06.382Z,14.07
2023-04-18T08:44:34.352Z,15.00
2023-04-18T08:47:02.041Z,14.00
2023-04-18T08:49:31.419Z,14.20
2023-04-18T08:52:01.173Z,13.45
2023-04-18T08:54:30.495Z,14.60
2023-04-18T08:57:09.064Z,12.30
2023-04-18T08:59:36.719Z,12.75
2023-04-18T09:02:09.286Z,13.30
2023-04-18T09:04:45.364Z,12.95
2023-04-18T09:07:15.434Z,12.15
2023-04-18T09:12:32.650Z,13.43
2023-04-18T09:15:15.072Z,11.18
2023-04-18T09:17:51.314Z,12.07
2023-04-18T09:20:30.789Z,12.20
2023-04-18T09:23:00.680Z,10.70
2023-04-18T09:25:34.970Z,10.95
2023-04-18T09:28:21.081Z,10.43
2023-04-18T09:30:51.456Z,9.95
2023-04-18T09:33:28.370Z,9.45
2023-04-18T09:35:57.307Z,10.13
2023-04-18T09:38:41.215Z,10.02
2023-04-18T09:41:10.618Z,9.88
2023-04-18T09:43:39.018Z,9.38
2023-04-18T09:46:07.989Z,8.77
2023-04-18T09:48:36.182Z,9.88
2023-04-18T09:51:12.250Z,9.48
2023-04-18T09:53:41.367Z,8.35
2023-04-18T09:56:14.628Z,9.03
2023-04-18T09:58:43.943Z,8.57
2023-04-18T10:01:13.569Z,8.45
2023-04-18T10:03:46.658Z,9.20
2023-04-18T10:06:17.981Z,8.10
2023-04-18T10:08:47.727Z,8.50
2023-04-18T10:11:15.750Z,8.88
2023-04-18T10:13:47.719Z,7.28
2023-04-18T10:16:16.919Z,7.38
2023-04-18T10:18:44.547Z,6.77
2023-04-18T10:21:12.407Z,6.68
2023-04-18T10:23:40.629Z,6.15
2023-04-18T10:26:09.974Z,6.63
2023-04-18T10:28:57.509Z,7.03
2023-04-18T10:31:29.157Z,7.25
2023-04-18T10:34:18.271Z,6.82
2023-04-18T10:37:05.620Z,6.43
2023-04-18T10:39:47.819Z,6.28
2023-04-18T10:42:16.844Z,7.18
2023-04-18T10:45:24.217Z,5.97
2023-04-18T10:48:29.610Z,6.57
2023-04-18T10:51:21.069Z,6.38
2023-04-18T10:53:52.726Z,6.78
2023-04-18T10:56:20.496Z,6.15
2023-04-18T10:58:53.007Z,7.22
2023-04-18T11:01:32.403Z,6.32
2023-04-18T11:04:01.000Z,6.85
2023-04-18T11:06:31.072Z,7.53
2023-04-18T11:09:14.540Z,7.28
2023-04-18T11:11:43.441Z,6.20
2023-04-18T11:14:11.036Z,8.27
2023-04-18T11:16:39.937Z,6.97
2023-04-18T11:19:21.863Z,7.07
2023-04-18T11:21:49.644Z,6.20
2023-04-18T11:24:24.429Z,10.23
2023-04-18T11:26:55.947Z,8.07
2023-04-18T11:29:23.913Z,7.22
2023-04-18T11:31:55.822Z,9.32
2023-04-18T11:34:30.740Z,7.28
2023-04-18T11:37:00.910Z,7.65
2023-04-18T11:39:28.777Z,6.72
2023-04-18T11:41:59.775Z,6.63
2023-04-18T11:44:30.004Z,6.85
2023-04-18T11:49:29.618Z,6.70
2023-04-18T11:51:57.901Z,7.78
2023-04-18T11:54:44.699Z,7.70
2023-04-18T11:57:30.385Z,7.60
2023-04-18T12:00:00.897Z,7.20
2023-04-18T12:02:43.289Z,8.40
2023-04-18T12:05:14.523Z,7.63
2023-04-18T12:07:45.245Z,7.47
2023-04-18T12:10:31.491Z,8.77
2023-04-18T12:13:02.474Z,9.40
2023-04-18T12:15:31.984Z,8.15
2023-04-18T12:18:05.514Z,8.65
2023-04-18T12:20:38.911Z,7.80
2023-04-18T12:23:07.769Z,7.72
2023-04-18T12:25:36.464Z,7.25
2023-04-18T12:28:19.961Z,8.18
2023-04-18T12:30:47.485Z,7.68
2023-04-18T12:33:15.059Z,7.53
2023-04-18T12:35:42.956Z,7.43
2023-04-18T12:38:10.994Z,7.10
2023-04-18T12:40:41.776Z,7.13
2023-04-18T12:43:09.779Z,7.15
2023-04-18T12:45:37.372Z,7.05
2023-04-18T12:48:05.147Z,6.20
2023-04-18T12:50:33.069Z,5.75
2023-04-18T12:53:01.627Z,5.90
2023-04-18T12:55:32.012Z,6.30
2023-04-18T12:58:02.624Z,6.47
2023-04-18T13:00:32.364Z,6.30
2023-04-18T13:03:00.964Z,6.32
2023-04-18T13:05:32.978Z,6.13
2023-04-18T13:10:32.602Z,5.78
2023-04-18T13:13:00.213Z,6.15
2023-04-18T13:15:27.823Z,5.75
2023-04-18T13:18:04.402Z,5.93
2023-04-18T13:20:35.855Z,5.82
2023-04-18T13:23:04.035Z,5.45
2023-04-18T13:25:31.781Z,4.40
2023-04-18T13:28:00.956Z,4.72
2023-04-18T13:30:28.912Z,5.00
2023-04-18T13:32:56.842Z,4.70
2023-04-18T13:35:24.716Z,4.18
2023-04-18T13:37:52.233Z,4.32
2023-04-18T13:40:19.851Z,4.38
2023-04-18T13:42:47.407Z,4.60
2023-04-18T13:45:15.644Z,4.30
2023-04-18T13:47:43.180Z,3.80
2023-04-18T13:50:11.819Z,4.47
2023-04-18T13:52:39.357Z,4.40
2023-04-18T13:55:07.587Z,4.25
2023-04-18T13:57:37.329Z,4.35
2023-04-18T14:00:06.640Z,4.05
2023-04-18T14:02:40.891Z,4.25
2023-04-18T14:05:09.265Z,3.97
2023-04-18T14:07:38.593Z,4.38
2023-04-18T14:10:09.272Z,4.22
2023-04-18T14:12:36.882Z,4.40
2023-04-18T14:15:04.926Z,4.68
2023-04-18T14:17:32.681Z,4.20
2023-04-18T14:20:01.282Z,4.13
2023-04-18T14:22:32.339Z,4.10
2023-04-18T14:25:05.924Z,4.38
2023-04-18T14:27:33.598Z,3.85
2023-04-18T14:30:01.090Z,4.38
2023-04-18T14:32:29.532Z,4.80
2023-04-18T14:34:58.797Z,4.30
2023-04-18T14:37:26.506Z,4.82
2023-04-18T14:39:54.019Z,4.82
2023-04-18T14:42:21.939Z,3.83
2023-04-18T14:44:49.502Z,4.47
2023-04-18T14:47:17.364Z,5.32
2023-04-18T14:49:44.987Z,5.60
2023-04-18T14:52:13.195Z,4.47
2023-04-18T14:54:40.858Z,4.30
2023-04-18T14:57:10.229Z,4.00
2023-04-18T14:59:37.904Z,5.05
2023-04-18T15:02:05.558Z,4.35
2023-04-18T15:04:33.265Z,4.38
2023-04-18T15:07:01.841Z,4.80
2023-04-18T15:09:29.878Z,4.75
2023-04-18T15:11:58.294Z,4.13
2023-04-18T15:14:26.005Z,4.32
2023-04-18T15:16:53.670Z,4.45
2023-04-18T15:19:21.206Z,4.40
2023-04-18T15:21:48.840Z,4.20
2023-04-18T15:24:16.720Z,4.53
2023-04-18T15:26:44.446Z,4.85
2023-04-18T15:29:12.805Z,4.30
2023-04-18T15:31:40.549Z,4.80
2023-04-18T15:34:08.295Z,5.00
2023-04-18T15:36:36.355Z,4.35
2023-04-18T15:39:07.429Z,4.45
2023-04-18T15:41:36.903Z,4.22
2023-04-18T15:44:06.058Z,4.53
2023-04-18T15:46:37.959Z,4.60
2023-04-18T15:49:05.704Z,4.15
2023-04-18T15:51:33.254Z,4.55
2023-04-18T15:54:00.967Z,4.90
2023-04-18T15:56:28.891Z,4.30
2023-04-18T15:58:58.759Z,4.68
2023-04-18T16:01:26.935Z,4.82
2023-04-18T16:03:55.123Z,4.40
2023-04-18T16:06:26.569Z,4.07
2023-04-18T16:08:54.247Z,4.72
2023-04-18T16:11:21.999Z,3.85
2023-04-18T16:13:49.686Z,3.97
2023-04-18T16:16:17.239Z,4.38
2023-04-18T16:18:44.896Z,4.32
2023-04-18T16:21:16.231Z,4.45
2023-04-18T16:23:43.923Z,4.25
2023-04-18T16:26:11.518Z,4.43
2023-04-18T16:28:39.263Z,4.43
2023-04-18T16:31:06.908Z,4.53
2023-04-18T16:33:34.514Z,4.57
2023-04-18T16:36:11.034Z,4.55
2023-04-18T16:38:38.994Z,4.30
2023-04-18T16:41:06.952Z,4.50
2023-04-18T16:43:38.707Z,4.32
2023-04-18T16:46:06.503Z,4.10
2023-04-18T16:48:36.733Z,4.05
2023-04-18T16:51:04.641Z,4.70
2023-04-18T16:53:32.316Z,3.58
2023-04-18T16:56:00.939Z,4.30
2023-04-18T16:58:30.429Z,4.93
2023-04-18T17:00:57.911Z,4.13
2023-04-18T17:03:25.822Z,4.70
2023-04-18T17:05:53.512Z,4.10
2023-04-18T17:08:21.034Z,4.95
2023-04-18T17:10:51.850Z,5.95
2023-04-18T17:13:19.448Z,4.32
2023-04-18T17:15:47.252Z,4.60
2023-04-18T17:18:14.772Z,4.85
2023-04-18T17:20:42.276Z,4.32
2023-04-18T17:23:11.164Z,4.00
2023-04-18T17:25:38.721Z,4.32
2023-04-18T17:28:06.350Z,4.55
2023-04-18T17:30:33.908Z,3.85
2023-04-18T17:33:01.543Z,4.68
2023-04-18T17:35:29.738Z,4.47
2023-04-18T17:37:57.467Z,4.70
2023-04-18T17:40:25.138Z,3.75
2023-04-18T17:42:52.775Z,3.90
2023-04-18T17:45:21.316Z,4.50
2023-04-18T17:47:50.022Z,3.58
2023-04-18T17:50:17.798Z,3.60
2023-04-18T17:52:46.630Z,3.55
2023-04-18T17:55:14.253Z,3.92
2023-04-18T17:57:42.408Z,4.32
2023-04-18T18:00:11.900Z,4.45
2023-04-18T18:02:43.398Z,3.47
2023-04-18T18:05:14.419Z,4.15
2023-04-18T18:07:48.475Z,3.83
2023-04-18T18:10:19.161Z,3.97
2023-04-18T18:12:47.166Z,4.53
2023-04-18T18:15:15.631Z,4.50
2023-04-18T18:17:43.447Z,4.32
2023-04-18T18:20:11.873Z,4.60
2023-04-18T18:22:39.385Z,4.43
2023-04-18T18:25:07.445Z,4.78
2023-04-18T18:27:35.286Z,5.05
2023-04-18T18:30:04.116Z,5.28
2023-04-18T18:32:31.955Z,4.75
2023-04-18T18:35:02.661Z,4.03
2023-04-18T18:37:30.367Z,4.85
2023-04-18T18:39:58.735Z,4.25
2023-04-18T18:42:26.778Z,3.53
2023-04-18T18:44:54.430Z,3.72
2023-04-18T18:47:22.079Z,5.53
2023-04-18T18:49:49.702Z,4.18
2023-04-18T18:52:17.383Z,3.83
2023-04-18T18:54:45.202Z,3.70
2023-04-18T18:57:12.799Z,3.55
2023-04-18T18:59:41.571Z,3.33
2023-04-18T19:02:10.042Z,2.88
2023-04-18T19:04:38.330Z,3.60
2023-04-18T19:07:06.100Z,4.72
2023-04-18T19:09:33.851Z,3.10
2023-04-18T19:12:01.559Z,3.45
2023-04-18T19:14:29.065Z,2.53
2023-04-18T19:16:57.966Z,3.25
2023-04-18T19:19:28.481Z,3.30
2023-04-18T19:21:56.433Z,2.67
2023-04-18T19:24:24.103Z,3.00
2023-04-18T19:26:51.647Z,2.83
2023-04-18T19:29:19.201Z,2.60
2023-04-18T19:31:46.896Z,2.90
2023-04-18T19:34:14.542Z,2.92
2023-04-18T19:36:42.054Z,3.47
2023-04-18T19:39:09.657Z,2.65
2023-04-18T19:41:37.319Z,3.00
2023-04-18T19:44:04.999Z,2.97
2023-04-18T19:46:32.989Z,3.70
2023-04-18T19:49:00.687Z,3.53
2023-04-18T19:51:28.313Z,3.13
2023-04-18T19:53:55.940Z,3.08
2023-04-18T19:56:23.628Z,3.33
2023-04-18T19:58:51.267Z,3.60
2023-04-18T20:01:20.316Z,3.75
2023-04-18T20:03:48.542Z,3.63
2023-04-18T20:06:16.807Z,3.92
2023-04-18T20:08:47.244Z,4.63
2023-04-18T20:11:14.868Z,5.03
2023-04-18T20:13:42.738Z,4.22
2023-04-18T20:16:11.488Z,4.43
2023-04-18T20:18:41.287Z,5.63
2023-04-18T20:21:10.079Z,4.82
2023-04-18T20:23:39.504Z,4.60
2023-04-18T20:26:09.284Z,4.30
2023-04-18T20:28:37.965Z,4.45
2023-04-18T20:31:05.792Z,4.78
2023-04-18T20:33:33.537Z,6.75
2023-04-18T20:36:01.043Z,4.88
2023-04-18T20:38:29.811Z,4.43
2023-04-18T20:41:00.842Z,3.90
2023-04-18T20:43:28.542Z,4.95
2023-04-18T20:45:57.721Z,5.28
2023-04-18T20:48:30.844Z,5.53
2023-04-18T20:50:58.811Z,4.30
2023-04-18T20:53:27.146Z,4.80
2023-04-18T20:55:54.815Z,4.82
2023-04-18T20:58:22.812Z,4.82
2023-04-18T21:00:50.475Z,4.50
2023-04-18T21:03:18.365Z,5.45
2023-04-18T21:05:46.215Z,5.22
2023-04-18T21:08:13.898Z,5.75
2023-04-18T21:10:41.477Z,5.43
2023-04-18T21:13:09.314Z,4.60
2023-04-18T21:15:38.252Z,4.60
2023-04-18T21:18:06.103Z,5.60
2023-04-18T21:20:37.035Z,4.60
2023-04-18T21:23:07.012Z,5.35
2023-04-18T21:28:01.995Z,5.10
2023-04-18T21:30:32.054Z,4.63
2023-04-18T21:35:29.707Z,5.28
2023-04-18T21:40:26.826Z,5.80
2023-04-18T21:45:22.330Z,5.40
2023-04-18T21:47:49.974Z,5.68
2023-04-18T21:50:17.582Z,5.60
2023-04-18T21:52:45.639Z,5.82
2023-04-18T21:55:13.160Z,6.10
2023-04-18T21:57:40.684Z,5.55
2023-04-18T22:00:10.613Z,6.85
2023-04-18T22:02:40.852Z,6.68
2023-04-18T22:05:09.030Z,6.70
2023-04-18T22:07:50.080Z,6.07
2023-04-18T22:10:27.877Z,7.00
2023-04-18T22:12:58.453Z,6.93
2023-04-18T22:15:28.697Z,6.97
2023-04-18T22:17:57.831Z,7.07
2023-04-18T22:20:26.871Z,7.82
2023-04-18T22:22:54.575Z,6.53
2023-04-18T22:25:22.253Z,7.30
2023-04-18T22:27:49.833Z,8.18
2023-04-18T22:30:17.578Z,7.07
2023-04-18T22:32:45.429Z,8.70
2023-04-18T22:35:13.358Z,7.55
2023-04-18T22:37:41.666Z,7.78
2023-04-18T22:40:09.720Z,8.00
2023-04-18T22:42:38.630Z,7.70
2023-04-18T22:45:07.481Z,6.97
2023-04-18T22:47:34.970Z,7.15
2023-04-18T22:50:02.674Z,6.72
2023-04-18T22:52:31.202Z,8.27
2023-04-18T22:54:58.957Z,7.57
2023-04-18T22:57:26.564Z,7.80
2023-04-18T22:59:54.090Z,6.97
2023-04-18T23:02:21.714Z,8.07
2023-04-18T23:04:50.554Z,8.07
2023-04-18T23:07:18.178Z,8.43
2023-04-18T23:09:45.736Z,7.43
2023-04-18T23:12:13.346Z,7.43
2023-04-18T23:14:43.905Z,8.05
2023-04-18T23:17:11.613Z,7.70
2023-04-18T23:19:39.271Z,7.47
2023-04-18T23:22:07.074Z,7.35
2023-04-18T23:24:34.564Z,6.40
2023-04-18T23:27:05.376Z,7.82
2023-04-18T23:29:37.832Z,7.57
2023-04-18T23:32:05.760Z,8.10
2023-04-18T23:34:33.917Z,7.22
2023-04-18T23:37:01.474Z,7.82
2023-04-18T23:39:29.082Z,8.00
2023-04-18T23:41:56.963Z,6.43
2023-04-18T23:44:24.685Z,7.95
2023-04-18T23:46:52.690Z,7.57
2023-04-18T23:49:20.223Z,7.75
2023-04-18T23:51:48.133Z,9.52
2023-04-18T23:54:15.771Z,8.23
2023-04-18T23:56:43.526Z,8.30
2023-04-18T23:59:11.132Z,8.38
